Time;durP1;ratioP1;P1;durP2;ratioP2;P2;SDS_P1;SDS_P2;PMS_P1;PMS_P2;Temp;Humidity;BMP_temperature;BMP_pressure;BME280_temperature;BME280_humidity;BME280_pressure;Samples;Min_cycle;Max_cycle;Signal;HPM_P1;HPM_P2
2022/08/18 00:00:43;;;;;;;1999.90;999.90;;;18.80;99.90;;;;;;5072617;28;20045;-59
2022/08/18 00:03:10;;;;;;;1999.90;999.90;;;18.80;99.90;;;;;;5073897;28;20095;-59
2022/08/18 00:05:36;;;;;;;1999.90;999.90;;;18.80;99.90;;;;;;5072629;28;20052;-59
2022/08/18 00:08:03;;;;;;;1999.90;999.90;;;18.80;99.90;;;;;;5073955;28;20491;-59
2022/08/18 00:10:29;;;;;;;1999.90;999.90;;;18.70;99.90;;;;;;5072580;28;20118;-59
2022/08/18 00:12:55;;;;;;;1999.90;999.90;;;18.70;99.90;;;;;;5072267;28;20051;-59
2022/08/18 00:15:21;;;;;;;1999.90;999.90;;;18.80;99.90;;;;;;5073509;28;20084;-59
2022/08/18 00:17:47;;;;;;;1999.90;999.90;;;18.70;99.90;;;;;;5073736;28;20079;-59
2022/08/18 00:20:18;;;;;;;1999.90;999.90;;;18.70;99.90;;;;;;5072668;28;20067;-59
2022/08/18 00:22:44;;;;;;;1999.90;999.90;;;18.80;99.90;;;;;;5073192;28;20368;-59
2022/08/18 00:25:12;;;;;;;1999.90;999.90;;;18.80;99.90;;;;;;5073249;28;20036;-59
2022/08/18 00:27:40;;;;;;;1999.90;999.90;;;18.80;99.90;;;;;;5072274;28;20483;-59
2022/08/18 00:30:09;;;;;;;1999.90;999.90;;;18.80;99.90;;;;;;5073571;28;20036;-59
2022/08/18 00:32:39;;;;;;;1999.90;999.90;;;18.80;99.90;;;;;;5072801;28;20044;-59
2022/08/18 00:35:12;;;;;;;1999.90;999.90;;;18.70;99.90;;;;;;5072992;28;20055;-59
2022/08/18 00:37:39;;;;;;;1999.90;999.90;;;18.70;99.90;;;;;;5073352;28;20049;-59
2022/08/18 00:40:07;;;;;;;1999.90;999.90;;;18.60;99.90;;;;;;5070443;28;20482;-59
2022/08/18 00:42:42;;;;;;;1999.90;999.90;;;18.60;99.90;;;;;;5072626;28;20056;-59
2022/08/18 00:45:13;;;;;;;1999.90;999.90;;;18.60;99.90;;;;;;5071787;28;20494;-59
2022/08/18 00:47:39;;;;;;;1999.90;999.90;;;18.60;99.90;;;;;;5072442;28;20052;-59
2022/08/18 00:50:05;;;;;;;1999.90;999.90;;;18.50;99.90;;;;;;5071382;28;20120;-59
2022/08/18 00:52:32;;;;;;;1999.90;999.90;;;18.50;99.90;;;;;;5072682;28;20045;-59
2022/08/18 00:55:02;;;;;;;1999.90;999.90;;;18.50;99.90;;;;;;5070958;28;20060;-59
2022/08/18 00:57:29;;;;;;;1999.90;999.90;;;18.50;99.90;;;;;;5072730;28;20044;-59
2022/08/18 01:00:07;;;;;;;1999.90;999.90;;;18.40;99.90;;;;;;5071599;28;20056;-59
2022/08/18 01:02:36;;;;;;;1999.90;999.90;;;18.40;99.90;;;;;;5071857;28;20483;-59
2022/08/18 01:05:09;;;;;;;1999.90;999.90;;;18.40;99.90;;;;;;5072554;28;20036;-59
2022/08/18 01:07:44;;;;;;;1999.90;999.90;;;18.40;99.90;;;;;;5071414;28;20040;-60
2022/08/18 01:10:15;;;;;;;1999.90;999.90;;;18.40;99.90;;;;;;5072655;28;20048;-59
2022/08/18 01:12:43;;;;;;;1999.90;999.90;;;18.30;99.90;;;;;;5072277;28;20044;-59
2022/08/18 01:15:10;;;;;;;1999.90;999.90;;;18.30;99.90;;;;;;5071865;28;20054;-59
2022/08/18 01:23:22;;;;;;;1999.90;999.90;;;18.30;99.90;;;;;;5071898;28;20486;-59
2022/08/18 01:25:59;;;;;;;1999.90;999.90;;;18.30;99.90;;;;;;5071865;28;20057;-59
2022/08/18 01:28:27;;;;;;;1999.90;999.90;;;18.30;99.90;;;;;;5071220;28;20463;-59
2022/08/18 01:30:57;;;;;;;1999.90;999.90;;;18.30;99.90;;;;;;5072070;28;20105;-59
2022/08/18 01:33:26;;;;;;;1999.90;999.90;;;18.30;99.90;;;;;;5072395;28;20080;-59
2022/08/18 01:35:53;;;;;;;1999.90;999.90;;;18.20;99.90;;;;;;5072409;28;20123;-59
2022/08/18 01:38:21;;;;;;;1999.90;999.90;;;18.20;99.90;;;;;;5072158;28;20044;-59
2022/08/18 01:40:47;;;;;;;1999.90;999.90;;;18.20;99.90;;;;;;5072401;28;20431;-59
2022/08/18 01:43:14;;;;;;;1999.90;999.90;;;18.20;99.90;;;;;;5069896;28;20040;-59
2022/08/18 01:45:41;;;;;;;1999.90;999.90;;;18.20;99.90;;;;;;5072657;28;20075;-59
2022/08/18 01:48:08;;;;;;;1999.90;999.90;;;18.20;99.90;;;;;;5072171;28;20109;-59
2022/08/18 01:50:35;;;;;;;1999.90;999.90;;;18.20;99.90;;;;;;5073894;28;20051;-59
2022/08/18 01:53:04;;;;;;;1999.90;999.90;;;18.10;99.90;;;;;;5076075;28;20049;-59
2022/08/18 01:55:34;;;;;;;1999.90;999.90;;;18.10;99.90;;;;;;5074874;28;20049;-59
2022/08/18 01:58:00;;;;;;;1999.90;999.90;;;18.10;99.90;;;;;;5075643;28;20545;-59
2022/08/18 02:00:28;;;;;;;1999.90;999.90;;;18.00;99.90;;;;;;5075912;28;20384;-59
2022/08/18 02:02:55;;;;;;;1999.90;999.90;;;18.00;99.90;;;;;;5075690;28;20049;-59
2022/08/18 02:05:30;;;;;;;1999.90;999.90;;;18.00;99.90;;;;;;5075106;28;20090;-59
2022/08/18 02:07:56;;;;;;;1999.90;999.90;;;18.00;99.90;;;;;;5058002;28;20060;-59
2022/08/18 02:10:22;;;;;;;1999.90;999.90;;;18.00;99.90;;;;;;5074108;28;20398;-59
2022/08/18 02:12:48;;;;;;;1999.90;999.90;;;18.00;99.90;;;;;;5075056;28;20122;-59
2022/08/18 02:15:13;;;;;;;1999.90;999.90;;;18.10;99.90;;;;;;5076211;28;20518;-59
2022/08/18 02:17:42;;;;;;;1999.90;999.90;;;18.10;99.90;;;;;;5074073;28;20060;-59
2022/08/18 02:20:11;;;;;;;1999.90;999.90;;;18.20;99.90;;;;;;5074863;28;20044;-59
2022/08/18 02:22:37;;;;;;;1999.90;999.90;;;18.20;99.90;;;;;;5075591;28;20599;-59
2022/08/18 02:25:04;;;;;;;1999.90;999.90;;;18.20;99.90;;;;;;5075552;28;20375;-59
2022/08/18 02:27:30;;;;;;;1999.90;999.90;;;18.20;99.90;;;;;;5074593;28;20041;-59
2022/08/18 02:29:58;;;;;;;1999.90;999.90;;;18.30;99.90;;;;;;5075770;28;20048;-59
2022/08/18 02:32:23;;;;;;;1999.90;999.90;;;18.30;99.90;;;;;;5074340;28;20051;-59
2022/08/18 02:34:49;;;;;;;1999.90;999.90;;;18.30;99.90;;;;;;5075696;28;20402;-59
2022/08/18 02:37:15;;;;;;;1999.90;999.90;;;18.40;99.90;;;;;;5074984;28;20048;-59
2022/08/18 02:39:40;;;;;;;1999.90;999.90;;;18.40;99.90;;;;;;5073102;28;20127;-59
2022/08/18 02:42:07;;;;;;;1999.90;999.90;;;18.50;99.90;;;;;;5075416;28;20049;-59
2022/08/18 02:44:33;;;;;;;1999.90;999.90;;;18.50;99.90;;;;;;5075370;28;20041;-59
2022/08/18 02:46:59;;;;;;;1999.90;999.90;;;18.50;99.90;;;;;;5074288;28;20055;-59
2022/08/18 02:49:25;;;;;;;1999.90;999.90;;;18.50;99.90;;;;;;5075641;28;20132;-59
2022/08/18 02:51:52;;;;;;;1999.90;999.90;;;18.60;99.90;;;;;;5075472;28;20107;-59
2022/08/18 02:54:21;;;;;;;1999.90;999.90;;;18.60;99.90;;;;;;5073603;28;20513;-59
2022/08/18 02:56:50;;;;;;;1999.90;999.90;;;18.60;99.90;;;;;;5075210;28;20071;-59
2022/08/18 02:59:19;;;;;;;1999.90;999.90;;;18.60;99.90;;;;;;5075407;28;20475;-59
2022/08/18 03:01:47;;;;;;;1999.90;999.90;;;18.60;99.90;;;;;;5071914;28;20058;-60
2022/08/18 03:04:16;;;;;;;1999.90;999.90;;;18.60;99.90;;;;;;5073581;28;20048;-60
2022/08/18 03:06:43;;;;;;;1999.90;999.90;;;18.60;99.90;;;;;;5073703;28;20060;-59
2022/08/18 03:09:10;;;;;;;1999.90;999.90;;;18.60;99.90;;;;;;5074102;28;20583;-60
2022/08/18 03:11:36;;;;;;;1999.90;999.90;;;18.60;99.90;;;;;;5073125;28;20077;-60
2022/08/18 03:14:04;;;;;;;1999.90;999.90;;;18.60;99.90;;;;;;5073401;28;20048;-59
2022/08/18 03:16:31;;;;;;;1999.90;999.90;;;18.60;99.90;;;;;;5074017;28;20093;-59
2022/08/18 03:18:58;;;;;;;1999.90;999.90;;;18.70;99.90;;;;;;5075030;28;20497;-59
2022/08/18 03:21:26;;;;;;;1999.90;999.90;;;18.70;99.90;;;;;;5073741;28;20167;-60
2022/08/18 03:23:53;;;;;;;1999.90;999.90;;;18.70;99.90;;;;;;5074255;28;20482;-60
2022/08/18 03:26:20;;;;;;;1999.90;999.90;;;18.80;99.90;;;;;;5073338;28;20052;-59
2022/08/18 03:28:48;;;;;;;1999.90;999.90;;;18.80;99.90;;;;;;5073434;28;20771;-59
2022/08/18 03:31:16;;;;;;;1999.90;999.90;;;18.70;99.90;;;;;;5054514;28;20049;-59
2022/08/18 03:33:43;;;;;;;1999.90;999.90;;;18.70;99.90;;;;;;5054635;28;20142;-60
2022/08/18 03:36:14;;;;;;;1999.90;999.90;;;18.70;99.90;;;;;;5060311;28;20044;-60
2022/08/18 03:38:42;;;;;;;1999.90;999.90;;;18.70;99.90;;;;;;5073824;28;20041;-59
2022/08/18 03:41:09;;;;;;;1999.90;999.90;;;18.70;99.90;;;;;;5056189;28;20045;-59
2022/08/18 03:43:36;;;;;;;1999.90;999.90;;;18.70;99.90;;;;;;5073715;28;20056;-59
2022/08/18 03:46:04;;;;;;;1999.90;999.90;;;18.60;99.90;;;;;;5072450;28;20049;-60
2022/08/18 03:48:31;;;;;;;1999.90;999.90;;;18.60;99.90;;;;;;5072505;28;20059;-59
2022/08/18 03:51:05;;;;;;;1999.90;999.90;;;18.60;99.90;;;;;;5072041;28;20475;-60
2022/08/18 03:53:32;;;;;;;1999.90;999.90;;;18.60;99.90;;;;;;5073811;28;20078;-59
2022/08/18 03:55:58;;;;;;;1999.90;999.90;;;18.60;99.90;;;;;;5073719;28;20041;-60
2022/08/18 03:58:25;;;;;;;1999.90;999.90;;;18.60;99.90;;;;;;5071927;28;20067;-60
2022/08/18 04:00:50;;;;;;;1999.90;999.90;;;18.60;99.90;;;;;;5073730;28;20463;-60
2022/08/18 04:03:16;;;;;;;1999.90;999.90;;;18.60;99.90;;;;;;5073962;28;20120;-60
2022/08/18 04:05:42;;;;;;;1999.90;999.90;;;18.60;99.90;;;;;;5071681;28;20048;-59
2022/08/18 04:08:07;;;;;;;1999.90;999.90;;;18.60;99.90;;;;;;5072624;28;20065;-59
2022/08/18 04:10:34;;;;;;;1999.90;999.90;;;18.60;99.90;;;;;;5072300;28;20045;-59
2022/08/18 04:13:04;;;;;;;1999.90;999.90;;;18.70;99.90;;;;;;5071991;28;20056;-59
2022/08/18 04:15:31;;;;;;;1999.90;999.90;;;18.60;99.90;;;;;;5073410;28;20052;-59
2022/08/18 04:18:03;;;;;;;1999.90;999.90;;;18.70;99.90;;;;;;5071481;28;20041;-59
2022/08/18 04:20:32;;;;;;;1999.90;999.90;;;18.70;99.90;;;;;;5073790;28;20055;-59
2022/08/18 04:22:58;;;;;;;1999.90;999.90;;;18.70;99.90;;;;;;5072958;28;20055;-59
2022/08/18 04:25:25;;;;;;;1999.90;999.90;;;18.70;99.90;;;;;;5071589;28;20059;-59
2022/08/18 04:27:56;;;;;;;1999.90;999.90;;;18.70;99.90;;;;;;5073224;28;20483;-59
2022/08/18 04:30:23;;;;;;;1999.90;999.90;;;18.70;99.90;;;;;;5071896;28;20048;-59
2022/08/18 04:32:50;;;;;;;1999.90;999.90;;;18.80;99.90;;;;;;5072284;28;20036;-58
2022/08/18 04:35:16;;;;;;;1999.90;999.90;;;18.70;99.90;;;;;;5073035;28;20123;-60
2022/08/18 04:37:42;;;;;;;1999.90;999.90;;;18.70;99.90;;;;;;5073360;28;20554;-59
2022/08/18 04:40:10;;;;;;;1999.90;999.90;;;18.70;99.90;;;;;;5072074;28;20044;-59
2022/08/18 04:42:36;;;;;;;1999.90;999.90;;;18.70;99.90;;;;;;5073256;28;20037;-59
2022/08/18 04:45:02;;;;;;;1999.90;999.90;;;18.60;99.90;;;;;;5073287;28;20045;-59
2022/08/18 04:47:28;;;;;;;1999.90;999.90;;;18.60;99.90;;;;;;5072056;28;20047;-59
2022/08/18 04:49:53;;;;;;;1999.90;999.90;;;18.60;99.90;;;;;;5071381;28;20131;-59
2022/08/18 04:55:04;;;;;;;1999.90;999.90;;;18.60;99.90;;;;;;5072344;28;20044;-59
2022/08/18 04:57:32;;;;;;;1999.90;999.90;;;18.60;99.90;;;;;;5072737;28;20105;-59
2022/08/18 04:59:58;;;;;;;1999.90;999.90;;;18.60;99.90;;;;;;5072047;28;20044;-60
2022/08/18 05:02:24;;;;;;;1999.90;999.90;;;18.60;99.90;;;;;;5072469;28;20495;-59
2022/08/18 05:04:50;;;;;;;1999.90;999.90;;;18.60;99.90;;;;;;5071591;28;20052;-59
2022/08/18 05:07:18;;;;;;;1999.90;999.90;;;18.60;99.90;;;;;;5072014;28;20413;-60
2022/08/18 05:09:44;;;;;;;1999.90;999.90;;;18.60;99.90;;;;;;5072694;28;20059;-59
2022/08/18 05:12:13;;;;;;;1999.90;999.90;;;18.60;99.90;;;;;;5071399;28;20548;-60
2022/08/18 05:14:40;;;;;;;1999.90;999.90;;;18.60;99.90;;;;;;5070540;28;20379;-59
2022/08/18 05:17:06;;;;;;;1999.90;999.90;;;18.60;99.90;;;;;;5072356;28;20052;-59
2022/08/18 05:19:34;;;;;;;1999.90;999.90;;;18.60;99.90;;;;;;5072949;28;20048;-59
2022/08/18 05:22:00;;;;;;;1999.90;999.90;;;18.70;99.90;;;;;;5071839;28;20466;-59
2022/08/18 05:24:28;;;;;;;1999.90;999.90;;;18.60;99.90;;;;;;5072159;28;20124;-59
2022/08/18 05:26:54;;;;;;;1999.90;999.90;;;18.60;99.90;;;;;;5072836;28;20543;-59
2022/08/18 05:29:21;;;;;;;1999.90;999.90;;;18.60;99.90;;;;;;5070408;28;20478;-59
2022/08/18 05:31:48;;;;;;;1999.90;999.90;;;18.60;99.90;;;;;;5072545;28;20036;-59
2022/08/18 05:34:16;;;;;;;1999.90;999.90;;;18.60;99.90;;;;;;5070697;28;20059;-59
2022/08/18 05:37:01;;;;;;;1999.90;999.90;;;18.70;99.90;;;;;;5072000;28;20036;-59
2022/08/18 05:39:43;;;;;;;1999.90;999.90;;;18.70;99.90;;;;;;5072581;28;20056;-59
2022/08/18 05:42:16;;;;;;;1999.90;999.90;;;18.70;99.90;;;;;;5069899;28;20044;-59
2022/08/18 05:44:48;;;;;;;1999.90;999.90;;;18.80;99.90;;;;;;5072372;28;20049;-59
2022/08/18 05:47:18;;;;;;;1999.90;999.90;;;18.80;99.90;;;;;;5072336;28;20467;-59
2022/08/18 05:49:47;;;;;;;1999.90;999.90;;;18.90;99.90;;;;;;5071931;28;20374;-59
2022/08/18 05:52:27;;;;;;;1999.90;999.90;;;18.90;99.90;;;;;;5070405;28;20475;-59
2022/08/18 05:57:56;;;;;;;1999.90;999.90;;;19.00;99.90;;;;;;5069475;28;20048;-59
2022/08/18 06:00:23;;;;;;;1999.90;999.90;;;19.00;99.90;;;;;;5070835;28;20101;-59
2022/08/18 06:03:04;;;;;;;1999.90;999.90;;;19.00;99.90;;;;;;5072277;28;20242;-59
2022/08/18 06:05:47;;;;;;;1999.90;999.90;;;19.10;99.90;;;;;;5070264;28;20060;-59
2022/08/18 06:08:15;;;;;;;1999.90;999.90;;;19.10;99.90;;;;;;5071655;28;20044;-59
2022/08/18 06:10:47;;;;;;;1999.90;999.90;;;19.20;99.90;;;;;;5070151;28;20060;-59
2022/08/18 06:13:13;;;;;;;1999.90;999.90;;;19.20;99.90;;;;;;5070607;28;20078;-59
2022/08/18 06:16:10;;;;;;;1999.90;999.90;;;19.20;99.90;;;;;;5072018;28;20057;-59
2022/08/18 06:18:42;;;;;;;1999.90;999.90;;;19.30;99.90;;;;;;5069905;28;20502;-59
2022/08/18 06:21:10;;;;;;;1999.90;999.90;;;19.30;99.90;;;;;;5072240;28;20127;-59
2022/08/18 06:23:59;;;;;;;1999.90;999.90;;;19.40;99.90;;;;;;5071672;28;20049;-59
2022/08/18 06:26:39;;;;;;;1999.90;999.90;;;19.40;99.90;;;;;;5071224;28;20544;-59
2022/08/18 06:29:29;;;;;;;1999.90;999.90;;;19.40;99.90;;;;;;5070344;28;20514;-59
2022/08/18 06:32:14;;;;;;;1999.90;999.90;;;19.50;99.90;;;;;;5071200;28;20084;-59
2022/08/18 06:35:00;;;;;;;1999.90;999.90;;;19.50;99.90;;;;;;5071691;28;20053;-59
2022/08/18 06:37:33;;;;;;;1999.90;999.90;;;19.60;99.90;;;;;;5072103;28;20048;-59
2022/08/18 06:39:58;;;;;;;1999.90;999.90;;;19.60;99.90;;;;;;5074945;28;20087;-59
2022/08/18 06:42:41;;;;;;;1999.90;999.90;;;19.70;99.90;;;;;;5075329;28;20098;-59
2022/08/18 06:45:11;;;;;;;1999.90;999.90;;;19.70;99.90;;;;;;5074880;28;20087;-59
2022/08/18 06:47:58;;;;;;;1999.90;999.90;;;19.70;99.90;;;;;;5074768;28;20103;-59
2022/08/18 06:50:28;;;;;;;1999.90;999.90;;;19.70;99.90;;;;;;5075262;28;20041;-59
2022/08/18 06:52:56;;;;;;;1999.90;999.90;;;19.70;99.90;;;;;;5072380;28;20041;-59
2022/08/18 06:55:37;;;;;;;1999.90;999.90;;;19.80;99.90;;;;;;5075447;28;20048;-59
2022/08/18 06:58:18;;;;;;;1999.90;999.90;;;19.80;99.90;;;;;;5055338;28;20041;-59
2022/08/18 07:00:55;;;;;;;1999.90;999.90;;;19.80;99.90;;;;;;5054423;28;20045;-59
2022/08/18 07:03:38;;;;;;;1999.90;999.90;;;19.80;99.90;;;;;;5073122;28;20044;-59
2022/08/18 07:06:04;;;;;;;1999.90;999.90;;;19.90;99.90;;;;;;5075026;28;20140;-59
2022/08/18 07:08:40;;;;;;;1999.90;999.90;;;19.90;99.90;;;;;;5074356;28;20127;-59
2022/08/18 07:11:19;;;;;;;1999.90;999.90;;;19.90;99.90;;;;;;5074767;28;20044;-59
2022/08/18 07:13:47;;;;;;;1999.90;999.90;;;19.90;99.90;;;;;;5072273;28;20055;-59
2022/08/18 07:16:29;;;;;;;1999.90;999.90;;;19.90;99.90;;;;;;5073103;28;20041;-59
2022/08/18 07:19:10;;;;;;;1999.90;999.90;;;19.90;99.90;;;;;;5071973;28;20051;-59
2022/08/18 07:21:39;;;;;;;1999.90;999.90;;;20.00;99.90;;;;;;5070292;28;20074;-59
2022/08/18 07:24:09;;;;;;;1999.90;999.90;;;20.00;99.90;;;;;;5074616;28;20169;-59
2022/08/18 07:27:00;;;;;;;1999.90;999.90;;;20.00;99.90;;;;;;5073262;28;20542;-59
2022/08/18 07:29:27;;;;;;;1999.90;999.90;;;19.90;99.90;;;;;;5070889;28;20039;-59
2022/08/18 07:31:55;;;;;;;1999.90;999.90;;;19.90;99.90;;;;;;5068198;28;20064;-59
2022/08/18 07:34:35;;;;;;;1999.90;999.90;;;19.80;99.90;;;;;;5074398;28;20048;-59
2022/08/18 07:37:22;;;;;;;1999.90;999.90;;;19.80;99.90;;;;;;5073617;28;20045;-59
2022/08/18 07:40:05;;;;;;;1999.90;999.90;;;19.70;99.90;;;;;;5074609;28;20098;-59
2022/08/18 07:42:40;;;;;;;1999.90;999.90;;;19.70;99.90;;;;;;5073382;28;20048;-59
2022/08/18 07:45:25;;;;;;;1999.90;999.90;;;19.70;99.90;;;;;;5074262;28;20080;-59
2022/08/18 07:48:06;;;;;;;1999.90;999.90;;;19.70;99.90;;;;;;5074212;28;20040;-59
2022/08/18 07:50:43;;;;;;;1999.90;999.90;;;19.70;99.90;;;;;;5073016;28;20110;-59
2022/08/18 07:53:20;;;;;;;1999.90;999.90;;;19.70;99.90;;;;;;5068730;28;20053;-59
2022/08/18 07:55:51;;;;;;;1999.90;999.90;;;19.70;99.90;;;;;;5067362;28;20049;-59
2022/08/18 07:58:26;;;;;;;1999.90;999.90;;;19.80;99.90;;;;;;5073360;28;20045;-59
2022/08/18 08:01:06;;;;;;;1999.90;999.90;;;19.80;99.90;;;;;;5073632;28;20045;-59
2022/08/18 08:03:58;;;;;;;1999.90;999.90;;;19.90;99.90;;;;;;5072628;28;20041;-59
2022/08/18 08:06:36;;;;;;;1999.90;999.90;;;20.00;99.90;;;;;;5073536;28;20049;-59
2022/08/18 08:09:11;;;;;;;1999.90;999.90;;;20.10;99.90;;;;;;5053529;28;20102;-59
2022/08/18 08:11:55;;;;;;;1999.90;999.90;;;20.10;99.90;;;;;;5058846;28;20116;-60
2022/08/18 08:14:35;;;;;;;1999.90;999.90;;;20.30;99.90;;;;;;5072412;28;20546;-59
2022/08/18 08:17:24;;;;;;;1999.90;999.90;;;20.40;99.90;;;;;;5069581;28;20498;-59
2022/08/18 08:20:10;;;;;;;1999.90;999.90;;;20.60;99.90;;;;;;5071778;28;20048;-59
2022/08/18 08:22:55;;;;;;;1999.90;999.90;;;20.80;99.90;;;;;;5072298;28;20080;-59
2022/08/18 08:25:24;;;;;;;1999.90;999.90;;;20.90;99.90;;;;;;5072522;28;20049;-59
2022/08/18 08:27:56;;;;;;;1999.90;999.90;;;21.00;99.90;;;;;;5072599;28;20494;-59
2022/08/18 08:30:24;;;;;;;1999.90;999.90;;;20.90;99.90;;;;;;5070072;28;20132;-59
2022/08/18 08:33:12;;;;;;;1999.90;999.90;;;20.90;99.90;;;;;;5072430;28;20051;-59
2022/08/18 08:35:44;;;;;;;1999.90;999.90;;;20.80;99.90;;;;;;5073093;28;20044;-59
2022/08/18 08:38:17;;;;;;;1999.90;999.90;;;20.80;99.90;;;;;;5072702;28;20052;-59
2022/08/18 08:40:52;;;;;;;1999.90;999.90;;;20.80;99.90;;;;;;5072812;28;20099;-59
2022/08/18 08:43:28;;;;;;;1999.90;999.90;;;20.70;99.90;;;;;;5072045;28;20467;-59
2022/08/18 08:46:09;;;;;;;1999.90;999.90;;;20.60;99.90;;;;;;5070908;28;20106;-59
2022/08/18 08:48:42;;;;;;;1999.90;999.90;;;20.50;99.90;;;;;;5070570;28;20384;-59
2022/08/18 08:51:26;;;;;;;1999.90;999.90;;;20.40;99.90;;;;;;5072189;28;20095;-59
2022/08/18 08:54:00;;;;;;;1999.90;999.90;;;20.40;99.90;;;;;;5072063;28;20482;-59
2022/08/18 08:56:32;;;;;;;1999.90;999.90;;;20.30;99.90;;;;;;5072425;28;20429;-59
2022/08/18 08:59:09;;;;;;;1999.90;999.90;;;20.30;99.90;;;;;;5069580;28;20049;-59
2022/08/18 09:01:52;;;;;;;1999.90;999.90;;;20.20;99.90;;;;;;5066500;28;20107;-58
2022/08/18 09:04:18;;;;;;;1999.90;999.90;;;20.20;99.90;;;;;;5064808;28;20076;-59
2022/08/18 09:06:56;;;;;;;1999.90;999.90;;;20.20;99.90;;;;;;5071572;28;20494;-59
2022/08/18 09:09:39;;;;;;;1999.90;999.90;;;20.30;99.90;;;;;;5071174;28;20048;-59
2022/08/18 09:12:15;;;;;;;;;;;20.40;99.90;;;;;;5071116;28;20051;-60
2022/08/18 09:15:02;;;;;;;1999.90;999.90;;;20.50;99.90;;;;;;5069954;28;19924;-59
2022/08/18 09:17:39;;;;;;;1999.90;999.90;;;20.60;99.90;;;;;;5071243;28;20052;-59
2022/08/18 09:20:25;;;;;;;1999.90;999.90;;;20.50;99.90;;;;;;5070175;28;20044;-59
2022/08/18 09:22:57;;;;;;;1999.90;999.90;;;20.60;99.90;;;;;;5070227;28;20060;-59
2022/08/18 09:25:47;;;;;;;1999.90;999.90;;;20.70;99.90;;;;;;5072700;28;20087;-59
2022/08/18 09:28:38;;;;;;;1999.90;999.90;;;20.80;99.90;;;;;;5070736;28;20047;-59
2022/08/18 09:31:04;;;;;;;1999.90;999.90;;;20.90;99.90;;;;;;5072014;28;20052;-59
2022/08/18 09:33:33;;;;;;;1999.90;999.90;;;21.00;99.90;;;;;;5071628;28;20051;-59
2022/08/18 09:36:15;;;;;;;1999.90;999.90;;;21.10;99.90;;;;;;5068645;28;20499;-60
2022/08/18 09:41:48;;;;;;;1999.90;999.90;;;21.10;99.90;;;;;;5069047;28;20083;-60
2022/08/18 09:44:40;;;;;;;1999.90;999.90;;;21.10;99.90;;;;;;5072156;28;20371;-59
2022/08/18 09:47:07;;;;;;;1999.90;999.90;;;21.10;99.90;;;;;;5052279;28;20091;-60
2022/08/18 09:49:41;;;;;;;1999.90;999.90;;;21.00;99.90;;;;;;5053473;28;20056;-59
2022/08/18 09:52:25;;;;;;;1999.90;999.90;;;21.00;99.90;;;;;;5072283;28;20118;-59
2022/08/18 09:54:58;;;;;;;1999.90;999.90;;;20.90;99.90;;;;;;5072399;28;20051;-60
2022/08/18 09:57:30;;;;;;;1999.90;999.90;;;20.90;99.90;;;;;;5071211;28;20060;-60
2022/08/18 10:00:01;;;;;;;1999.90;999.90;;;20.90;99.90;;;;;;5071696;28;20047;-59
2022/08/18 10:02:34;;;;;;;1999.90;999.90;;;20.80;99.90;;;;;;5071011;28;20054;-60
2022/08/18 10:05:26;;;;;;;1999.90;999.90;;;20.80;99.90;;;;;;5050844;28;20464;-60
2022/08/18 10:08:15;;;;;;;1999.90;999.90;;;20.90;99.90;;;;;;5059382;28;20111;-60
2022/08/18 10:10:53;;;;;;;1999.90;999.90;;;20.90;99.90;;;;;;5070970;28;20521;-60
2022/08/18 10:13:48;;;;;;;1999.90;999.90;;;20.90;99.90;;;;;;5071885;28;20061;-59
2022/08/18 10:16:40;;;;;;;1999.90;999.90;;;20.80;99.90;;;;;;5070035;28;20051;-60
2022/08/18 10:19:17;;;;;;;1999.90;999.90;;;20.90;99.90;;;;;;5070945;28;20442;-60
2022/08/18 10:21:56;;;;;;;1999.90;999.90;;;20.90;99.90;;;;;;5075418;28;20045;-60
2022/08/18 10:24:28;;;;;;;1999.90;999.90;;;20.90;99.90;;;;;;5074267;28;20051;-60
2022/08/18 10:26:54;;;;;;;1999.90;999.90;;;20.80;99.90;;;;;;5068857;28;20055;-60
2022/08/18 10:29:26;;;;;;;1999.90;999.90;;;20.80;99.90;;;;;;5071282;28;20044;-60
2022/08/18 10:31:55;;;;;;;1999.90;999.90;;;20.80;99.90;;;;;;5068684;28;20402;-60
2022/08/18 10:34:45;;;;;;;1999.90;999.90;;;20.80;99.90;;;;;;5068717;28;20094;-60
2022/08/18 10:37:12;;;;;;;1999.90;999.90;;;20.90;99.90;;;;;;5075180;28;20048;-60
2022/08/18 10:39:37;;;;;;;1999.90;999.90;;;21.00;99.90;;;;;;5074370;28;20071;-60
2022/08/18 10:42:17;;;;;;;1999.90;999.90;;;21.10;99.90;;;;;;5073713;28;20485;-60
2022/08/18 10:44:46;;;;;;;1999.90;999.90;;;21.20;99.90;;;;;;5073528;28;20045;-60
2022/08/18 10:47:23;;;;;;;1999.90;999.90;;;21.40;99.90;;;;;;5075418;28;20367;-60
2022/08/18 10:49:50;;;;;;;1999.90;999.90;;;21.70;99.90;;;;;;5074699;28;20055;-60
2022/08/18 10:52:33;;;;;;;1999.90;999.90;;;21.90;99.90;;;;;;5073626;28;20059;-60
2022/08/18 10:55:13;;;;;;;;;;;22.00;99.90;;;;;;5075791;28;20044;-60
2022/08/18 10:58:00;;;;;;;1999.90;999.90;;;22.40;99.90;;;;;;5075046;28;19975;-60
2022/08/18 11:00:47;;;;;;;1999.90;999.90;;;23.00;99.90;;;;;;5065460;28;21950;-60
2022/08/18 11:03:43;;;;;;;1999.90;999.90;;;23.10;99.90;;;;;;5070952;28;20083;-60
2022/08/18 11:06:15;;;;;;;1999.90;999.90;;;23.10;99.90;;;;;;5074462;28;20398;-59
2022/08/18 11:08:44;;;;;;;1999.90;999.90;;;22.80;99.90;;;;;;5074624;28;20048;-60
2022/08/18 11:11:12;;;;;;;1999.90;999.90;;;22.60;99.90;;;;;;5074007;28;20049;-60
2022/08/18 11:13:59;;;;;;;1999.90;999.90;;;22.30;99.90;;;;;;5071958;28;20060;-60
2022/08/18 11:16:35;;;;;;;1999.90;999.90;;;22.10;99.90;;;;;;5071410;28;20484;-60
2022/08/18 11:19:08;;;;;;;1999.90;999.90;;;21.90;99.90;;;;;;5073396;28;20044;-60
2022/08/18 11:21:35;;;;;;;1999.90;999.90;;;21.80;99.90;;;;;;5073994;28;20067;-60
2022/08/18 11:24:01;;;;;;;1999.90;999.90;;;21.80;99.90;;;;;;5074154;28;20548;-60
2022/08/18 11:26:30;;;;;;;1999.90;999.90;;;21.80;99.90;;;;;;5073180;28;20044;-60
2022/08/18 11:28:56;;;;;;;1999.90;999.90;;;21.70;99.90;;;;;;5073571;28;20495;-59
2022/08/18 11:31:23;;;;;;;1999.90;999.90;;;21.70;99.90;;;;;;5074586;28;20080;-60
2022/08/18 11:33:50;;;;;;;1999.90;999.90;;;21.60;99.90;;;;;;5073290;28;20509;-60
2022/08/18 11:36:15;;;;;;;1999.90;999.90;;;21.60;99.90;;;;;;5074280;28;20111;-60
2022/08/18 11:38:54;;;;;;;1999.90;999.90;;;21.60;99.90;;;;;;5074605;28;20048;-60
2022/08/18 11:41:25;;;;;;;1999.90;999.90;;;21.70;99.90;;;;;;5073173;28;20088;-60
2022/08/18 11:44:13;;;;;;;1999.90;999.90;;;21.80;99.90;;;;;;5074328;28;20542;-60
2022/08/18 11:46:39;;;;;;;1999.90;999.90;;;22.00;99.90;;;;;;5073754;28;20036;-60
2022/08/18 11:49:24;;;;;;;1999.90;999.90;;;22.10;99.90;;;;;;5073323;28;20040;-60
2022/08/18 11:51:57;;;;;;;1999.90;999.90;;;22.20;99.90;;;;;;5074320;28;20045;-60
2022/08/18 11:54:32;;;;;;;;;;;22.30;99.90;;;;;;5074196;28;20450;-60
2022/08/18 11:57:28;;;;;;;1999.90;999.90;;;22.40;99.90;;;;;;5073216;28;20003;-60
2022/08/18 11:59:55;;;;;;;1999.90;999.90;;;22.60;99.90;;;;;;5074113;28;20050;-60
2022/08/18 12:02:24;;;;;;;1999.90;999.90;;;22.70;99.90;;;;;;5072400;28;20089;-60
2022/08/18 12:04:52;;;;;;;1999.90;999.90;;;23.10;99.90;;;;;;5065823;28;20448;-60
2022/08/18 12:07:28;;;;;;;1999.90;999.90;;;23.40;99.90;;;;;;5064915;28;20045;-60
2022/08/18 12:10:18;;;;;;;1999.90;999.90;;;23.60;99.90;;;;;;5052918;28;20107;-60
2022/08/18 12:12:48;;;;;;;1999.90;999.90;;;23.70;99.90;;;;;;5068102;28;20080;-60
2022/08/18 12:15:13;;;;;;;1999.90;999.90;;;24.00;99.90;;;;;;5072075;28;20059;-60
2022/08/18 12:17:40;;;;;;;1999.90;999.90;;;24.10;99.90;;;;;;5072415;28;20387;-60
2022/08/18 12:20:08;;;;;;;1999.90;999.90;;;24.10;99.90;;;;;;5070916;28;20045;-60
2022/08/18 12:22:35;;;;;;;1999.90;999.90;;;24.10;99.90;;;;;;5072412;28;20091;-60
2022/08/18 12:25:04;;;;;;;1999.90;999.90;;;24.30;99.90;;;;;;5071903;28;20083;-60
2022/08/18 12:27:31;;;;;;;1999.90;999.90;;;24.30;99.90;;;;;;5059877;28;20392;-60
2022/08/18 12:29:59;;;;;;;1999.90;999.90;;;24.30;99.90;;;;;;5073155;28;20178;-60
2022/08/18 12:32:27;;;;;;;1999.90;999.90;;;24.10;99.90;;;;;;5072557;28;20048;-60
2022/08/18 12:34:53;;;;;;;1999.90;999.90;;;23.90;99.90;;;;;;5072413;28;20052;-60
2022/08/18 12:37:21;;;;;;;1999.90;999.90;;;23.80;99.90;;;;;;5072479;28;20435;-60
2022/08/18 12:39:47;;;;;;;1999.90;999.90;;;23.60;99.90;;;;;;5070185;28;20059;-60